createdAt,value
2019-02-14T00:06:01.505Z,22.57
2019-02-14T00:08:31.010Z,26.33
2019-02-14T00:11:00.475Z,27.53
2019-02-14T00:13:29.959Z,21.03
2019-02-14T00:15:59.427Z,22.37
2019-02-14T00:18:28.817Z,22.37
2019-02-14T00:20:58.209Z,31.67
2019-02-14T00:23:27.643Z,19.43
2019-02-14T00:26:10.456Z,27.13
2019-02-14T00:28:40.018Z,23.70
2019-02-14T00:31:09.387Z,25.33
2019-02-14T00:33:38.861Z,26.30
2019-02-14T00:36:08.501Z,21.47
2019-02-14T00:38:56.731Z,31.97
2019-02-14T00:41:26.370Z,30.30
2019-02-14T00:43:55.811Z,23.37
2019-02-14T00:46:25.269Z,31.03
2019-02-14T00:48:54.858Z,26.30
2019-02-14T00:54:16.739Z,25.87
2019-02-14T00:56:46.121Z,26.93
2019-02-14T00:59:17.000Z,29.47
2019-02-14T01:01:46.597Z,24.73
2019-02-14T01:04:16.207Z,31.90
2019-02-14T01:06:45.629Z,32.57
2019-02-14T01:09:15.708Z,32.17
2019-02-14T01:11:45.584Z,25.03
2019-02-14T01:14:26.723Z,31.80
2019-02-14T01:16:56.192Z,34.13
2019-02-14T01:19:25.617Z,23.90
2019-02-14T01:21:56.780Z,37.50
2019-02-14T01:24:26.444Z,30.50
2019-02-14T01:27:07.803Z,27.80
2019-02-14T01:32:12.756Z,30.63
2019-02-14T01:34:42.255Z,35.33
2019-02-14T01:37:11.761Z,29.50
2019-02-14T01:39:41.143Z,26.97
2019-02-14T01:42:10.868Z,33.23
2019-02-14T01:44:40.286Z,27.20
2019-02-14T01:47:09.686Z,26.97
2019-02-14T01:49:39.241Z,20.43
2019-02-14T01:52:08.777Z,28.47
2019-02-14T01:54:38.166Z,30.57
2019-02-14T01:57:07.675Z,23.40
2019-02-14T01:59:37.054Z,31.40
2019-02-14T02:02:45.873Z,26.20
2019-02-14T02:13:26.118Z,23.47
2019-02-14T02:15:55.555Z,18.60
2019-02-14T02:21:15.241Z,16.57
2019-02-14T02:23:44.752Z,16.67
2019-02-14T02:26:14.844Z,16.93
2019-02-14T02:28:44.350Z,14.67
2019-02-14T02:31:13.917Z,21.90
2019-02-14T02:34:02.462Z,14.87
2019-02-14T02:39:13.809Z,19.73
2019-02-14T02:47:11.334Z,23.70
2019-02-14T02:49:52.429Z,16.10
2019-02-14T02:52:22.076Z,17.43
2019-02-14T02:55:13.655Z,16.53
2019-02-14T02:57:43.184Z,15.73
2019-02-14T03:00:15.197Z,16.70
2019-02-14T03:02:44.806Z,18.47
2019-02-14T03:05:15.916Z,13.93
2019-02-14T03:07:45.373Z,14.90
2019-02-14T03:10:17.334Z,20.57
2019-02-14T03:12:46.913Z,18.23
2019-02-14T03:15:16.342Z,11.57
2019-02-14T03:17:45.805Z,15.80
2019-02-14T03:20:15.249Z,10.50
2019-02-14T03:22:44.866Z,20.43
2019-02-14T03:25:16.392Z,11.70
2019-02-14T03:27:45.818Z,14.37
2019-02-14T03:30:35.854Z,17.10
2019-02-14T03:36:19.401Z,14.53
2019-02-14T03:38:50.345Z,11.43
2019-02-14T03:41:19.924Z,10.00
2019-02-14T03:46:24.691Z,12.50
2019-02-14T03:48:54.352Z,12.03
2019-02-14T03:51:23.783Z,10.53
2019-02-14T03:53:53.264Z,11.07
2019-02-14T03:58:57.450Z,12.30
2019-02-14T04:01:27.212Z,11.23
2019-02-14T04:03:56.613Z,11.30
2019-02-14T04:06:27.704Z,10.60
2019-02-14T04:08:57.306Z,13.10
2019-02-14T04:11:26.877Z,14.43
2019-02-14T04:14:10.561Z,12.43
2019-02-14T04:16:27.566Z,10.87
2019-02-14T04:18:56.999Z,13.87
2019-02-14T04:21:26.426Z,11.47
2019-02-14T04:24:14.827Z,12.93
2019-02-14T04:26:45.210Z,9.67
2019-02-14T04:32:03.094Z,8.53
2019-02-14T04:34:40.830Z,10.40
2019-02-14T04:39:45.555Z,8.63
2019-02-14T04:42:15.375Z,7.60
2019-02-14T04:44:45.533Z,12.00
2019-02-14T04:47:15.075Z,6.43
2019-02-14T04:49:44.488Z,6.00
2019-02-14T04:52:14.113Z,7.70
2019-02-14T04:54:46.294Z,7.27
2019-02-14T04:57:34.661Z,5.90
2019-02-14T05:05:45.159Z,5.07
2019-02-14T05:08:25.894Z,4.70
2019-02-14T05:13:29.898Z,4.43
2019-02-14T05:15:59.517Z,5.80
2019-02-14T05:18:47.785Z,6.70
2019-02-14T05:21:28.721Z,10.13
2019-02-14T05:23:58.442Z,6.73
2019-02-14T05:26:27.794Z,5.43
2019-02-14T05:28:57.283Z,5.03
2019-02-14T05:31:26.681Z,6.13
2019-02-14T05:33:56.254Z,4.93
2019-02-14T05:36:25.705Z,5.30
2019-02-14T05:38:55.140Z,7.03
2019-02-14T05:41:24.515Z,6.70
2019-02-14T05:43:54.014Z,9.17
2019-02-14T05:46:23.412Z,6.43
2019-02-14T05:48:55.895Z,5.83
2019-02-14T05:51:25.530Z,5.87
2019-02-14T05:53:55.016Z,4.53
2019-02-14T05:56:24.434Z,5.10
2019-02-14T05:58:53.913Z,3.77
2019-02-14T06:04:13.479Z,5.63
2019-02-14T06:06:42.909Z,8.30
2019-02-14T06:09:12.296Z,5.60
2019-02-14T06:11:41.747Z,4.53
2019-02-14T06:14:11.139Z,7.33
2019-02-14T06:16:40.523Z,4.93
2019-02-14T06:19:10.171Z,6.30
2019-02-14T06:21:39.922Z,3.97
2019-02-14T06:24:09.487Z,6.43
2019-02-14T06:26:38.940Z,4.43
2019-02-14T06:29:08.325Z,5.10
2019-02-14T06:31:37.700Z,3.63
2019-02-14T06:34:07.265Z,4.47
2019-02-14T06:36:36.667Z,5.57
2019-02-14T06:39:07.208Z,5.10
2019-02-14T06:41:36.717Z,4.07
2019-02-14T06:44:06.162Z,6.03
2019-02-14T06:46:35.589Z,5.30
2019-02-14T06:49:05.002Z,5.10
2019-02-14T06:51:34.399Z,5.87
2019-02-14T06:54:03.931Z,5.70
2019-02-14T06:59:27.975Z,6.07
2019-02-14T07:01:57.488Z,5.60
2019-02-14T07:04:26.913Z,5.00
2019-02-14T07:06:56.295Z,8.93
2019-02-14T07:09:25.734Z,6.33
2019-02-14T07:11:55.114Z,6.90
2019-02-14T07:14:24.559Z,6.33
2019-02-14T07:16:54.057Z,6.20
2019-02-14T07:19:23.421Z,4.80
2019-02-14T07:21:55.302Z,5.80
2019-02-14T07:24:36.298Z,7.13
2019-02-14T07:27:05.847Z,5.97
2019-02-14T07:29:35.329Z,4.00
2019-02-14T07:32:04.754Z,5.93
2019-02-14T07:34:34.142Z,4.37
2019-02-14T07:37:05.161Z,6.27
2019-02-14T07:39:34.589Z,5.43
2019-02-14T07:42:03.984Z,8.10
2019-02-14T07:44:33.497Z,5.23
2019-02-14T07:47:02.908Z,7.17
2019-02-14T07:49:32.342Z,7.33
2019-02-14T07:52:01.756Z,4.33
2019-02-14T07:57:05.934Z,4.70
2019-02-14T07:59:38.523Z,6.63
2019-02-14T08:02:27.217Z,6.40
2019-02-14T08:05:07.687Z,8.53
2019-02-14T08:07:37.107Z,3.90
2019-02-14T08:10:07.922Z,5.83
2019-02-14T08:12:37.483Z,5.37
2019-02-14T08:15:08.722Z,4.43
2019-02-14T08:17:38.172Z,7.17
2019-02-14T08:22:43.089Z,9.07
2019-02-14T08:25:23.901Z,6.40
2019-02-14T08:30:47.071Z,5.17
2019-02-14T08:33:35.325Z,4.47
2019-02-14T08:38:39.910Z,4.97
2019-02-14T08:52:01.370Z,5.50
2019-02-14T08:54:30.906Z,5.30
2019-02-14T08:57:00.364Z,7.83
2019-02-14T08:59:29.748Z,4.30
2019-02-14T09:01:59.218Z,4.40
2019-02-14T09:04:28.821Z,5.10
2019-02-14T09:06:58.223Z,6.80
2019-02-14T09:09:27.729Z,4.90
2019-02-14T09:11:57.273Z,3.53
2019-02-14T09:14:26.676Z,3.73
2019-02-14T09:19:31.454Z,5.33
2019-02-14T09:25:08.525Z,4.57
2019-02-14T09:27:38.049Z,3.33
2019-02-14T09:30:27.919Z,4.27
2019-02-14T09:32:57.652Z,4.50
2019-02-14T09:35:27.453Z,4.10
2019-02-14T09:38:03.067Z,6.73
2019-02-14T09:40:28.082Z,6.33
2019-02-14T09:45:51.877Z,4.43
2019-02-14T09:48:32.438Z,3.07
2019-02-14T09:53:37.057Z,4.03
2019-02-14T09:56:06.606Z,4.43
2019-02-14T09:58:39.418Z,4.07
2019-02-14T10:01:08.858Z,4.30
2019-02-14T10:03:38.303Z,4.30
2019-02-14T10:06:07.681Z,3.23
2019-02-14T10:08:38.521Z,3.60
2019-02-14T10:13:43.357Z,4.10
2019-02-14T10:16:23.928Z,2.80
2019-02-14T10:24:40.839Z,5.03
2019-02-14T10:27:10.308Z,4.77
2019-02-14T10:29:46.785Z,4.30
2019-02-14T10:32:16.354Z,4.77
2019-02-14T10:34:48.308Z,3.97
2019-02-14T10:37:17.712Z,5.17
2019-02-14T10:39:47.414Z,6.67
2019-02-14T10:42:16.810Z,6.37
2019-02-14T10:44:50.642Z,7.63
2019-02-14T10:49:55.875Z,4.50
2019-02-14T10:52:25.295Z,5.17
2019-02-14T10:54:54.741Z,5.83
2019-02-14T10:57:24.170Z,6.43
2019-02-14T10:59:56.840Z,7.10
2019-02-14T11:02:26.192Z,3.53
2019-02-14T11:04:55.653Z,3.67
2019-02-14T11:07:25.043Z,5.57
2019-02-14T11:09:54.523Z,5.30
2019-02-14T11:14:59.063Z,6.20
2019-02-14T11:17:39.892Z,5.53
2019-02-14T11:20:11.846Z,8.60
2019-02-14T11:22:41.267Z,6.67
2019-02-14T11:25:13.744Z,7.63
2019-02-14T11:27:43.200Z,6.80
2019-02-14T11:30:14.017Z,10.20
2019-02-14T11:32:43.543Z,8.30
2019-02-14T11:35:13.169Z,15.53
2019-02-14T11:37:42.711Z,7.30
2019-02-14T11:40:14.812Z,6.47
2019-02-14T11:42:44.246Z,5.53
2019-02-14T11:45:15.733Z,6.43
2019-02-14T11:47:45.275Z,6.97
2019-02-14T11:50:14.884Z,9.73
2019-02-14T11:52:44.308Z,10.13
2019-02-14T11:55:14.019Z,6.63
2019-02-14T11:57:43.497Z,11.50
2019-02-14T12:00:17.606Z,8.30
2019-02-14T12:02:55.099Z,10.23
2019-02-14T12:05:18.691Z,8.40
2019-02-14T12:07:48.091Z,8.53
2019-02-14T12:10:38.283Z,8.40
2019-02-14T12:13:08.125Z,10.13
2019-02-14T12:15:37.528Z,12.87
2019-02-14T12:18:06.954Z,12.80
2019-02-14T12:20:48.042Z,10.00
2019-02-14T12:23:17.720Z,12.03
2019-02-14T12:26:07.822Z,9.73
2019-02-14T12:28:37.366Z,8.63
2019-02-14T12:31:06.917Z,12.53
2019-02-14T12:33:36.343Z,9.97
2019-02-14T12:36:09.525Z,14.13
2019-02-14T12:38:39.087Z,10.83
2019-02-14T12:41:08.507Z,12.07
2019-02-14T12:43:38.012Z,13.73
2019-02-14T12:46:07.738Z,8.73
2019-02-14T12:48:37.169Z,10.47
2019-02-14T12:51:06.606Z,12.67
2019-02-14T12:53:36.044Z,8.53
2019-02-14T12:56:05.574Z,8.30
2019-02-14T12:58:34.979Z,13.20
2019-02-14T13:01:24.766Z,11.23
2019-02-14T13:03:54.394Z,7.83
2019-02-14T13:06:26.650Z,9.67
2019-02-14T13:08:56.222Z,10.00
2019-02-14T13:11:25.592Z,10.17
2019-02-14T13:13:55.036Z,7.80
2019-02-14T13:19:19.574Z,12.70
2019-02-14T13:22:00.899Z,10.20
2019-02-14T13:24:49.306Z,12.57
2019-02-14T13:27:18.803Z,6.43
2019-02-14T13:29:48.227Z,12.23
2019-02-14T13:32:17.655Z,7.43
2019-02-14T13:34:47.113Z,7.77
2019-02-14T13:37:16.560Z,5.83
2019-02-14T13:39:46.182Z,9.57
2019-02-14T13:42:35.957Z,8.50
2019-02-14T13:45:17.295Z,11.27
2019-02-14T13:50:40.719Z,10.60
2019-02-14T13:53:10.112Z,13.23
2019-02-14T13:55:39.532Z,6.70
2019-02-14T14:00:44.400Z,8.63
2019-02-14T14:03:32.882Z,14.30
2019-02-14T14:11:25.205Z,7.50
2019-02-14T14:14:06.751Z,6.50
2019-02-14T14:16:36.280Z,8.30
2019-02-14T14:19:06.593Z,7.03
2019-02-14T14:24:34.349Z,10.73
2019-02-14T14:27:03.802Z,7.70
2019-02-14T14:29:33.341Z,10.58
2019-02-14T14:32:02.767Z,10.00
2019-02-14T14:34:32.169Z,10.97
2019-02-14T14:37:01.577Z,9.90
2019-02-14T14:39:31.099Z,8.63
2019-02-14T14:42:01.027Z,8.33
2019-02-14T14:47:16.602Z,7.43
2019-02-14T14:49:46.649Z,10.23
2019-02-14T14:52:18.758Z,12.33
2019-02-14T14:54:48.231Z,9.43
2019-02-14T15:00:08.289Z,5.07
2019-02-14T15:02:37.672Z,7.70
2019-02-14T15:05:07.164Z,11.10
2019-02-14T15:10:13.069Z,11.47
2019-02-14T15:12:44.357Z,10.30
2019-02-14T15:15:15.811Z,7.30
2019-02-14T15:17:45.290Z,8.10
2019-02-14T15:20:14.932Z,8.97
2019-02-14T15:25:32.769Z,7.90
2019-02-14T15:28:04.209Z,10.77
2019-02-14T15:30:33.617Z,7.63
2019-02-14T15:33:03.105Z,5.77
2019-02-14T15:35:32.484Z,8.57
2019-02-14T15:38:02.279Z,9.60
2019-02-14T15:40:31.694Z,8.53
2019-02-14T15:43:01.133Z,10.93
2019-02-14T15:45:30.562Z,9.35
2019-02-14T15:48:00.111Z,14.73
2019-02-14T15:50:34.506Z,13.20
2019-02-14T15:55:39.496Z,12.75
2019-02-14T15:58:10.100Z,9.68
2019-02-14T16:00:54.161Z,7.83
2019-02-14T16:03:23.783Z,7.10
2019-02-14T16:05:55.997Z,7.67
2019-02-14T16:08:25.493Z,9.50
2019-02-14T16:10:55.873Z,10.63
2019-02-14T16:13:26.429Z,9.93
2019-02-14T16:15:58.630Z,13.00
2019-02-14T16:18:27.156Z,10.00
2019-02-14T16:20:56.661Z,8.60
2019-02-14T16:23:27.809Z,8.78
2019-02-14T16:26:17.107Z,12.97
2019-02-14T16:29:05.836Z,12.90
2019-02-14T16:31:35.295Z,12.63
2019-02-14T16:34:04.711Z,11.80
2019-02-14T16:36:34.108Z,11.43
2019-02-14T16:44:15.322Z,13.73
2019-02-14T16:46:47.730Z,9.30
2019-02-14T16:49:25.231Z,12.20
2019-02-14T16:52:14.553Z,13.77
2019-02-14T16:57:32.777Z,9.30
2019-02-14T17:00:02.221Z,19.67
2019-02-14T17:02:43.261Z,14.63
2019-02-14T17:05:22.384Z,13.13
2019-02-14T17:07:52.064Z,16.90
2019-02-14T17:10:21.527Z,13.70
2019-02-14T17:15:42.121Z,13.23
2019-02-14T17:18:13.630Z,13.23
2019-02-14T17:20:43.109Z,13.63
2019-02-14T17:23:12.816Z,14.23
2019-02-14T17:26:04.495Z,12.07
2019-02-14T17:28:13.948Z,13.57
2019-02-14T17:30:54.446Z,14.47
2019-02-14T17:33:23.876Z,15.03
2019-02-14T17:35:55.977Z,16.07
2019-02-14T17:38:25.680Z,16.63
2019-02-14T17:40:55.135Z,11.63
2019-02-14T17:46:16.409Z,20.90
2019-02-14T17:48:45.849Z,15.40
2019-02-14T17:51:38.588Z,15.23
2019-02-14T17:54:16.451Z,16.73
2019-02-14T17:56:46.115Z,15.13
2019-02-14T17:59:15.577Z,19.90
2019-02-14T18:01:45.032Z,17.80
2019-02-14T18:04:14.458Z,15.70
2019-02-14T18:06:43.935Z,18.80
2019-02-14T18:09:13.472Z,13.47
2019-02-14T18:11:43.105Z,15.60
2019-02-14T18:14:12.555Z,19.60
2019-02-14T18:16:41.978Z,19.90
2019-02-14T18:19:11.533Z,20.77
2019-02-14T18:21:40.962Z,13.83
2019-02-14T18:24:11.065Z,22.33
2019-02-14T18:29:18.160Z,18.37
2019-02-14T18:31:58.783Z,15.83
2019-02-14T18:34:28.248Z,18.07
2019-02-14T18:37:18.111Z,19.13
2019-02-14T18:39:50.845Z,19.00
2019-02-14T18:42:20.449Z,19.93
2019-02-14T18:44:50.447Z,17.90
2019-02-14T18:47:20.642Z,17.47
2019-02-14T18:49:50.165Z,12.70
2019-02-14T18:52:19.666Z,19.30
2019-02-14T18:54:49.066Z,19.27
2019-02-14T18:57:18.459Z,18.67
2019-02-14T19:02:23.229Z,17.90
2019-02-14T19:05:03.705Z,14.73
2019-02-14T19:10:22.239Z,17.67
2019-02-14T19:12:51.877Z,19.27
2019-02-14T19:15:21.476Z,18.60
2019-02-14T19:17:51.169Z,20.17
2019-02-14T19:20:20.851Z,13.50
2019-02-14T19:22:50.378Z,15.13
2019-02-14T19:25:25.103Z,18.90
2019-02-14T19:27:54.675Z,20.90
2019-02-14T19:30:24.192Z,15.10
2019-02-14T19:35:28.853Z,18.37
2019-02-14T19:37:58.383Z,22.23
2019-02-14T19:40:27.814Z,18.93
2019-02-14T19:42:57.383Z,15.43
2019-02-14T19:45:36.368Z,15.97
2019-02-14T19:51:05.060Z,13.57
2019-02-14T19:53:45.640Z,18.67
2019-02-14T19:56:15.194Z,20.47
2019-02-14T19:58:44.704Z,13.47
2019-02-14T20:01:14.300Z,16.10
2019-02-14T20:03:43.914Z,14.03
2019-02-14T20:06:13.566Z,19.10
2019-02-14T20:08:43.083Z,16.63
2019-02-14T20:11:12.882Z,16.30
2019-02-14T20:13:49.355Z,12.20
2019-02-14T20:19:09.666Z,15.10
2019-02-14T20:21:39.164Z,14.77
2019-02-14T20:24:09.087Z,16.27
2019-02-14T20:26:38.624Z,11.13
2019-02-14T20:29:08.224Z,13.90
2019-02-14T20:34:27.774Z,16.30
2019-02-14T20:37:00.625Z,13.03
2019-02-14T20:39:30.136Z,10.70
2019-02-14T20:41:59.862Z,22.33
2019-02-14T20:44:29.237Z,16.40
2019-02-14T20:46:58.658Z,17.93
2019-02-14T20:52:02.679Z,16.87
2019-02-14T20:57:13.562Z,17.53
2019-02-14T20:59:43.748Z,16.17
2019-02-14T21:02:13.250Z,19.03
2019-02-14T21:04:45.292Z,17.23
2019-02-14T21:10:06.054Z,16.00
2019-02-14T21:12:34.973Z,17.90
2019-02-14T21:15:05.329Z,14.57
2019-02-14T21:17:34.865Z,19.80
2019-02-14T21:20:05.058Z,17.60
2019-02-14T21:22:34.472Z,16.23
2019-02-14T21:25:04.693Z,19.70
2019-02-14T21:27:35.284Z,15.67
2019-02-14T21:30:06.232Z,15.70
2019-02-14T21:32:36.155Z,14.93
2019-02-14T21:35:06.597Z,18.13
2019-02-14T21:37:55.172Z,16.70
2019-02-14T21:40:35.992Z,22.17
2019-02-14T21:43:08.591Z,17.73
2019-02-14T21:45:38.123Z,15.90
2019-02-14T21:48:10.661Z,14.80
2019-02-14T21:50:40.077Z,13.87
2019-02-14T21:53:09.715Z,17.20
2019-02-14T21:55:39.123Z,15.23
2019-02-14T22:00:47.077Z,18.60
2019-02-14T22:06:02.107Z,20.40
2019-02-14T22:08:43.083Z,15.00
2019-02-14T22:11:12.564Z,14.73
2019-02-14T22:16:30.651Z,20.57
2019-02-14T22:19:00.213Z,14.73
2019-02-14T22:21:29.651Z,17.13
2019-02-14T22:23:59.188Z,17.90
2019-02-14T22:26:28.628Z,18.40
2019-02-14T22:28:58.171Z,17.90
2019-02-14T22:31:27.687Z,17.23
2019-02-14T22:33:57.339Z,17.13
2019-02-14T22:36:45.687Z,21.47
2019-02-14T22:39:18.007Z,18.67
2019-02-14T22:41:47.479Z,12.67
2019-02-14T22:44:18.993Z,16.37
2019-02-14T22:46:48.478Z,21.43
2019-02-14T22:49:18.382Z,23.80
2019-02-14T22:51:47.837Z,16.13
2019-02-14T22:54:17.391Z,18.80
2019-02-14T22:56:46.849Z,14.90
2019-02-14T22:59:16.370Z,18.20
2019-02-14T23:02:15.992Z,18.17
2019-02-14T23:04:45.694Z,21.17
2019-02-14T23:07:15.380Z,18.47
2019-02-14T23:09:56.802Z,19.77
2019-02-14T23:12:45.445Z,21.77
2019-02-14T23:15:15.468Z,18.53
2019-02-14T23:17:44.952Z,15.70
2019-02-14T23:20:14.425Z,18.67
2019-02-14T23:22:44.240Z,22.43
2019-02-14T23:25:13.683Z,22.70
2019-02-14T23:27:43.082Z,16.07
2019-02-14T23:30:13.014Z,19.73
2019-02-14T23:32:42.440Z,22.40
2019-02-14T23:35:11.893Z,30.33
2019-02-14T23:37:41.396Z,25.00
2019-02-14T23:40:10.819Z,23.33
2019-02-14T23:42:40.197Z,25.63
2019-02-14T23:45:09.838Z,19.77
2019-02-14T23:47:39.265Z,21.50
2019-02-14T23:50:09.302Z,30.50
2019-02-14T23:52:38.763Z,20.10
2019-02-14T23:55:08.297Z,20.33
